createdAt,value
2019-05-16T00:00:29.312Z,11.30
2019-05-16T00:02:59.027Z,11.30
2019-05-16T00:05:28.185Z,11.20
2019-05-16T00:07:58.934Z,11.20
2019-05-16T00:10:28.450Z,11.20
2019-05-16T00:12:59.543Z,11.20
2019-05-16T00:15:28.877Z,11.10
2019-05-16T00:17:58.542Z,11.10
2019-05-16T00:20:28.409Z,11.00
2019-05-16T00:22:58.935Z,11.00
2019-05-16T00:25:28.541Z,11.00
2019-05-16T00:27:58.713Z,10.90
2019-05-16T00:30:28.714Z,11.00
2019-05-16T00:32:58.851Z,10.90
2019-05-16T00:35:28.554Z,10.90
2019-05-16T00:37:59.116Z,10.90
2019-05-16T00:40:28.446Z,10.90
2019-05-16T00:42:58.861Z,10.90
2019-05-16T00:45:29.581Z,10.80
2019-05-16T00:47:59.331Z,10.80
2019-05-16T00:50:28.742Z,10.80
2019-05-16T00:52:59.007Z,10.80
2019-05-16T00:55:29.035Z,10.70
2019-05-16T00:57:58.889Z,10.70
2019-05-16T01:00:49.880Z,10.70
2019-05-16T01:03:20.205Z,10.70
2019-05-16T01:05:49.326Z,10.70
2019-05-16T01:08:19.103Z,10.70
2019-05-16T01:10:51.332Z,10.70
2019-05-16T01:13:18.947Z,10.70
2019-05-16T01:15:48.669Z,10.70
2019-05-16T01:18:18.739Z,10.60
2019-05-16T01:20:48.316Z,10.60
2019-05-16T01:23:18.182Z,10.60
2019-05-16T01:25:48.295Z,10.60
2019-05-16T01:28:18.028Z,10.60
2019-05-16T01:30:48.856Z,10.60
2019-05-16T01:33:19.285Z,10.60
2019-05-16T01:35:48.151Z,10.60
2019-05-16T01:38:18.128Z,10.60
2019-05-16T01:40:49.225Z,10.60
2019-05-16T01:43:18.044Z,10.60
2019-05-16T01:45:48.739Z,10.60
2019-05-16T01:48:19.059Z,10.50
2019-05-16T01:50:48.509Z,10.50
2019-05-16T01:53:17.887Z,10.50
2019-05-16T01:55:48.788Z,10.50
2019-05-16T01:58:19.984Z,10.50
2019-05-16T02:01:01.213Z,10.40
2019-05-16T02:03:19.463Z,10.40
2019-05-16T02:05:48.312Z,10.30
2019-05-16T02:08:18.208Z,10.30
2019-05-16T02:10:47.833Z,10.30
2019-05-16T02:13:18.034Z,10.30
2019-05-16T02:15:48.928Z,10.30
2019-05-16T02:18:18.366Z,10.30
2019-05-16T02:20:48.113Z,10.30
2019-05-16T02:23:18.888Z,10.30
2019-05-16T02:25:48.859Z,10.20
2019-05-16T02:28:21.120Z,10.20
2019-05-16T02:30:51.351Z,10.20
2019-05-16T02:33:21.441Z,10.10
2019-05-16T02:35:54.804Z,10.10
2019-05-16T02:38:21.417Z,10.10
2019-05-16T02:40:54.922Z,10.00
2019-05-16T02:43:26.259Z,10.00
2019-05-16T02:45:52.322Z,10.00
2019-05-16T02:48:21.770Z,9.90
2019-05-16T02:50:51.460Z,9.90
2019-05-16T02:53:22.350Z,9.90
2019-05-16T02:55:52.061Z,9.90
2019-05-16T02:58:23.471Z,9.90
2019-05-16T03:00:51.918Z,9.90
2019-05-16T03:03:21.634Z,9.90
2019-05-16T03:05:51.246Z,9.90
2019-05-16T03:08:21.469Z,9.90
2019-05-16T03:10:52.207Z,9.80
2019-05-16T03:13:23.055Z,9.80
2019-05-16T03:15:51.979Z,9.80
2019-05-16T03:18:23.731Z,9.70
2019-05-16T03:20:54.701Z,9.70
2019-05-16T03:23:23.583Z,9.60
2019-05-16T03:25:52.445Z,9.60
2019-05-16T03:28:22.319Z,9.60
2019-05-16T03:30:54.281Z,9.60
2019-05-16T03:33:31.703Z,9.50
2019-05-16T03:35:54.448Z,9.40
2019-05-16T03:38:23.288Z,9.30
2019-05-16T03:40:52.128Z,9.30
2019-05-16T03:43:21.965Z,9.30
2019-05-16T03:45:52.330Z,9.30
2019-05-16T03:48:21.651Z,9.30
2019-05-16T03:50:51.180Z,9.30
2019-05-16T03:53:21.118Z,9.20
2019-05-16T03:55:51.883Z,9.20
2019-05-16T03:58:22.500Z,9.20
2019-05-16T04:00:54.430Z,9.10
2019-05-16T04:03:23.428Z,9.10
2019-05-16T04:05:52.977Z,9.00
2019-05-16T04:08:24.988Z,9.00
2019-05-16T04:10:53.272Z,9.00
2019-05-16T04:13:22.358Z,9.00
2019-05-16T04:15:53.760Z,9.00
2019-05-16T04:18:22.733Z,9.00
2019-05-16T04:20:52.654Z,9.00
2019-05-16T04:23:22.008Z,9.00
2019-05-16T04:25:52.217Z,9.00
2019-05-16T04:28:22.496Z,9.00
2019-05-16T04:30:51.808Z,9.00
2019-05-16T04:33:21.936Z,9.00
2019-05-16T04:35:52.708Z,9.10
2019-05-16T04:38:35.126Z,9.10
2019-05-16T04:40:52.840Z,9.20
2019-05-16T04:43:22.609Z,9.30
2019-05-16T04:45:52.668Z,9.40
2019-05-16T04:48:22.542Z,9.50
2019-05-16T04:50:52.438Z,9.60
2019-05-16T04:53:21.795Z,9.70
2019-05-16T04:55:51.943Z,9.80
2019-05-16T04:58:23.442Z,9.90
2019-05-16T05:00:52.510Z,9.90
2019-05-16T05:03:21.500Z,10.00
2019-05-16T05:05:51.482Z,10.10
2019-05-16T05:08:21.811Z,10.10
2019-05-16T05:10:52.038Z,10.20
2019-05-16T05:13:22.421Z,10.20
2019-05-16T05:15:51.534Z,10.30
2019-05-16T05:18:21.406Z,10.30
2019-05-16T05:20:52.256Z,10.40
2019-05-16T05:23:21.301Z,10.40
2019-05-16T05:25:51.489Z,10.40
2019-05-16T05:28:21.460Z,10.40
2019-05-16T05:30:50.739Z,10.40
2019-05-16T05:33:20.986Z,10.50
2019-05-16T05:35:51.114Z,10.50
2019-05-16T05:38:21.293Z,10.50
2019-05-16T05:40:51.407Z,10.60
2019-05-16T05:43:21.596Z,10.70
2019-05-16T05:45:51.600Z,10.70
2019-05-16T05:48:21.515Z,10.80
2019-05-16T05:50:51.121Z,10.80
2019-05-16T05:53:21.071Z,10.90
2019-05-16T05:55:51.070Z,11.00
2019-05-16T05:58:20.776Z,11.00
2019-05-16T06:00:51.951Z,11.10
2019-05-16T06:03:22.390Z,11.20
2019-05-16T06:05:51.455Z,11.20
2019-05-16T06:08:20.450Z,11.20
2019-05-16T06:10:50.454Z,11.30
2019-05-16T06:13:20.514Z,11.40
2019-05-16T06:15:50.909Z,11.40
2019-05-16T06:18:20.500Z,11.50
2019-05-16T06:20:51.155Z,11.60
2019-05-16T06:23:21.060Z,11.60
2019-05-16T06:25:51.056Z,11.60
2019-05-16T06:28:21.092Z,11.70
2019-05-16T06:30:51.597Z,11.80
2019-05-16T06:33:20.919Z,11.80
2019-05-16T06:35:51.348Z,11.90
2019-05-16T06:38:21.203Z,12.00
2019-05-16T06:40:52.626Z,12.10
2019-05-16T06:43:20.824Z,12.20
2019-05-16T06:45:51.296Z,12.30
2019-05-16T06:48:21.429Z,12.40
2019-05-16T06:50:51.523Z,12.50
2019-05-16T06:53:21.324Z,12.50
2019-05-16T06:55:50.799Z,12.70
2019-05-16T06:58:22.279Z,12.80
2019-05-16T07:00:52.169Z,12.90
2019-05-16T07:03:20.918Z,12.90
2019-05-16T07:05:50.605Z,12.90
2019-05-16T07:08:20.395Z,12.90
2019-05-16T07:10:50.927Z,12.90
2019-05-16T07:13:20.012Z,12.90
2019-05-16T07:15:50.187Z,13.00
2019-05-16T07:18:20.976Z,13.00
2019-05-16T07:20:51.015Z,13.10
2019-05-16T07:23:21.239Z,13.10
2019-05-16T07:25:50.909Z,13.10
2019-05-16T07:28:20.984Z,13.10
2019-05-16T07:30:50.282Z,13.20
2019-05-16T07:33:21.269Z,13.20
2019-05-16T07:35:51.187Z,13.20
2019-05-16T07:38:20.707Z,13.30
2019-05-16T07:40:51.137Z,13.40
2019-05-16T07:43:20.776Z,13.40
2019-05-16T07:45:51.448Z,13.50
2019-05-16T07:48:21.749Z,13.50
2019-05-16T07:50:51.095Z,13.40
2019-05-16T07:53:21.449Z,13.40
2019-05-16T07:55:51.098Z,13.50
2019-05-16T07:58:21.754Z,13.50
2019-05-16T08:01:01.685Z,13.60
2019-05-16T08:03:21.164Z,13.80
2019-05-16T08:05:51.465Z,13.90
2019-05-16T08:08:24.356Z,14.10
2019-05-16T08:10:52.159Z,14.10
2019-05-16T08:13:21.345Z,14.20
2019-05-16T08:15:51.088Z,14.30
2019-05-16T08:18:21.545Z,14.10
2019-05-16T08:20:52.572Z,14.10
2019-05-16T08:25:52.128Z,14.20
2019-05-16T08:28:21.839Z,14.30
2019-05-16T08:33:22.269Z,14.50
2019-05-16T08:35:51.929Z,14.50
2019-05-16T08:38:21.735Z,14.40
2019-05-16T08:41:06.487Z,14.50
2019-05-16T08:43:22.222Z,14.60
2019-05-16T08:45:52.069Z,14.70
2019-05-16T08:48:22.997Z,14.80
2019-05-16T08:50:05.206Z,14.20
2019-05-16T08:50:54.741Z,14.90
2019-05-16T08:53:22.508Z,15.10
2019-05-16T08:55:51.451Z,15.10
2019-05-16T08:58:22.650Z,15.00
2019-05-16T09:00:56.201Z,14.90
2019-05-16T09:03:22.447Z,14.90
2019-05-16T09:05:53.477Z,14.90
2019-05-16T09:08:22.393Z,14.90
2019-05-16T09:10:39.201Z,14.30
2019-05-16T09:11:01.637Z,14.90
2019-05-16T09:13:22.079Z,14.90
2019-05-16T09:15:51.003Z,15.00
2019-05-16T09:18:19.807Z,15.10
2019-05-16T09:20:50.317Z,15.10
2019-05-16T09:23:19.382Z,15.10
2019-05-16T09:25:49.258Z,15.10
2019-05-16T09:28:18.496Z,15.00
2019-05-16T09:30:47.526Z,14.80
2019-05-16T09:33:17.660Z,14.70
2019-05-16T09:35:47.880Z,14.60
2019-05-16T09:38:20.285Z,14.50
2019-05-16T09:40:48.223Z,14.40
2019-05-16T09:43:17.987Z,14.40
2019-05-16T09:45:47.524Z,14.30
2019-05-16T09:48:18.937Z,14.40
2019-05-16T09:50:47.098Z,14.50
2019-05-16T09:53:17.035Z,14.60
2019-05-16T09:55:47.296Z,14.70
2019-05-16T09:58:18.022Z,14.70
2019-05-16T10:00:47.691Z,14.70
2019-05-16T10:03:20.348Z,15.00
2019-05-16T10:05:47.364Z,15.00
2019-05-16T10:08:17.363Z,15.20
2019-05-16T10:10:46.664Z,15.10
2019-05-16T10:13:18.301Z,15.20
2019-05-16T10:15:47.455Z,15.30
2019-05-16T10:18:17.030Z,15.30
2019-05-16T10:20:46.006Z,15.30
2019-05-16T10:23:18.024Z,15.30
2019-05-16T10:25:48.089Z,15.30
2019-05-16T10:28:17.420Z,15.20
2019-05-16T10:30:50.045Z,15.20
2019-05-16T10:33:19.091Z,15.20
2019-05-16T10:35:49.408Z,15.30
2019-05-16T10:38:18.222Z,15.50
2019-05-16T10:40:47.681Z,15.70
2019-05-16T10:43:17.254Z,15.50
2019-05-16T10:45:46.599Z,15.50
2019-05-16T10:48:17.507Z,15.60
2019-05-16T10:50:47.847Z,15.70
2019-05-16T10:53:39.780Z,15.80
2019-05-16T10:55:47.763Z,15.80
2019-05-16T10:58:32.869Z,16.00
2019-05-16T11:01:11.802Z,16.10
2019-05-16T11:03:17.983Z,16.20
2019-05-16T11:06:01.393Z,16.30
2019-05-16T11:08:17.512Z,16.50
2019-05-16T11:10:47.627Z,16.50
2019-05-16T11:13:20.367Z,16.60
2019-05-16T11:15:49.587Z,16.60
2019-05-16T11:18:18.713Z,16.50
2019-05-16T11:20:49.294Z,16.70
2019-05-16T11:23:22.932Z,17.10
2019-05-16T11:25:48.735Z,17.50
2019-05-16T11:28:17.968Z,17.60
2019-05-16T11:30:47.775Z,17.50
2019-05-16T11:33:17.699Z,17.20
2019-05-16T11:35:47.637Z,16.90
2019-05-16T11:38:17.747Z,16.90
2019-05-16T11:40:47.769Z,16.90
2019-05-16T11:43:21.121Z,16.70
2019-05-16T11:45:47.459Z,16.70
2019-05-16T11:48:17.166Z,16.60
2019-05-16T11:50:47.985Z,16.70
2019-05-16T11:53:17.609Z,16.70
2019-05-16T11:55:54.338Z,16.60
2019-05-16T11:58:18.113Z,16.50
2019-05-16T12:00:48.158Z,16.40
2019-05-16T12:03:17.709Z,16.40
2019-05-16T12:05:48.280Z,16.40
2019-05-16T12:08:17.648Z,16.60
2019-05-16T12:10:47.188Z,16.70
2019-05-16T12:13:25.394Z,16.80
2019-05-16T12:15:46.852Z,17.20
2019-05-16T12:18:17.267Z,17.30
2019-05-16T12:20:46.355Z,17.30
2019-05-16T12:23:17.133Z,17.50
2019-05-16T12:25:47.615Z,17.70
2019-05-16T12:28:16.862Z,17.60
2019-05-16T12:30:47.175Z,17.60
2019-05-16T12:33:18.829Z,17.70
2019-05-16T12:35:47.587Z,17.80
2019-05-16T12:38:17.248Z,17.90
2019-05-16T12:40:47.834Z,18.00
2019-05-16T12:43:18.023Z,18.00
2019-05-16T12:45:47.518Z,18.30
2019-05-16T12:48:20.077Z,18.10
2019-05-16T12:50:48.027Z,17.90
2019-05-16T12:53:17.272Z,18.00
2019-05-16T12:55:47.612Z,18.10
2019-05-16T12:58:24.997Z,18.10
2019-05-16T13:00:54.065Z,18.20
2019-05-16T13:03:18.211Z,18.10
2019-05-16T13:05:47.759Z,18.10
2019-05-16T13:08:17.383Z,18.30
2019-05-16T13:10:47.093Z,18.40
2019-05-16T13:13:17.713Z,18.50
2019-05-16T13:15:47.710Z,18.40
2019-05-16T13:18:17.105Z,18.60
2019-05-16T13:20:46.932Z,18.60
2019-05-16T13:23:18.270Z,18.40
2019-05-16T13:25:48.182Z,18.30
2019-05-16T13:28:17.310Z,18.30
2019-05-16T13:30:47.098Z,18.20
2019-05-16T13:33:17.708Z,18.30
2019-05-16T13:35:47.291Z,18.20
2019-05-16T13:38:17.331Z,18.00
2019-05-16T13:40:46.803Z,17.90
2019-05-16T13:43:17.420Z,18.00
2019-05-16T13:45:47.162Z,18.20
2019-05-16T13:48:17.255Z,18.20
2019-05-16T13:50:47.341Z,18.00
2019-05-16T13:53:16.797Z,18.10
2019-05-16T13:55:45.702Z,18.20
2019-05-16T13:58:17.659Z,18.20
2019-05-16T14:00:47.828Z,18.20
2019-05-16T14:03:17.918Z,18.30
2019-05-16T14:05:47.815Z,18.50
2019-05-16T14:08:17.121Z,18.50
2019-05-16T14:10:48.705Z,18.60
2019-05-16T14:13:17.086Z,18.80
2019-05-16T14:15:47.326Z,18.80
2019-05-16T14:18:17.685Z,18.70
2019-05-16T14:20:46.827Z,18.70
2019-05-16T14:23:17.708Z,18.70
2019-05-16T14:25:47.950Z,18.70
2019-05-16T14:28:17.560Z,18.80
2019-05-16T14:30:46.867Z,18.80
2019-05-16T14:33:17.224Z,18.80
2019-05-16T14:35:47.263Z,18.90
2019-05-16T14:38:17.562Z,19.10
2019-05-16T14:40:50.168Z,19.20
2019-05-16T14:43:17.448Z,19.20
2019-05-16T14:45:46.774Z,19.00
2019-05-16T14:48:18.174Z,19.00
2019-05-16T14:50:47.109Z,19.00
2019-05-16T14:53:17.993Z,19.00
2019-05-16T14:55:48.920Z,19.00
2019-05-16T14:58:17.739Z,19.00
2019-05-16T15:00:48.996Z,19.10
2019-05-16T15:03:18.077Z,18.90
2019-05-16T15:05:48.082Z,19.10
2019-05-16T15:08:18.133Z,19.20
2019-05-16T15:10:47.245Z,19.20
2019-05-16T15:13:17.552Z,19.30
2019-05-16T15:15:46.843Z,19.50
2019-05-16T15:18:17.747Z,19.60
2019-05-16T15:20:46.879Z,19.60
2019-05-16T15:23:17.509Z,19.50
2019-05-16T15:25:46.407Z,19.60
2019-05-16T15:28:17.239Z,19.60
2019-05-16T15:30:46.936Z,19.70
2019-05-16T15:33:19.388Z,19.70
2019-05-16T15:35:47.170Z,19.60
2019-05-16T15:38:16.683Z,19.60
2019-05-16T15:40:48.183Z,19.60
2019-05-16T15:43:18.082Z,19.60
2019-05-16T15:45:52.143Z,19.50
2019-05-16T15:48:17.656Z,19.50
2019-05-16T15:50:46.834Z,19.50
2019-05-16T15:53:17.480Z,19.40
2019-05-16T15:55:47.092Z,19.50
2019-05-16T15:58:17.984Z,19.50
2019-05-16T16:00:48.807Z,19.60
2019-05-16T16:03:17.936Z,19.60
2019-05-16T16:05:46.792Z,19.80
2019-05-16T16:08:18.239Z,20.00
2019-05-16T16:10:47.827Z,19.60
2019-05-16T16:13:19.900Z,19.20
2019-05-16T16:15:53.211Z,19.00
2019-05-16T16:18:21.602Z,18.80
2019-05-16T16:20:48.507Z,19.00
2019-05-16T16:23:17.953Z,19.20
2019-05-16T16:25:50.685Z,19.30
2019-05-16T16:28:18.040Z,19.00
2019-05-16T16:30:47.946Z,19.30
2019-05-16T16:33:25.546Z,19.60
2019-05-16T16:35:48.004Z,19.40
2019-05-16T16:38:17.374Z,19.10
2019-05-16T16:40:47.994Z,19.10
2019-05-16T16:43:18.541Z,19.30
2019-05-16T16:45:47.900Z,19.40
2019-05-16T16:48:20.080Z,19.50
2019-05-16T16:50:48.909Z,19.60
2019-05-16T16:53:17.787Z,19.70
2019-05-16T16:55:47.593Z,19.50
2019-05-16T16:58:17.503Z,19.40
2019-05-16T17:00:47.701Z,19.30
2019-05-16T17:03:16.972Z,19.20
2019-05-16T17:05:46.507Z,19.20
2019-05-16T17:08:16.793Z,19.30
2019-05-16T17:10:47.706Z,19.30
2019-05-16T17:13:16.988Z,19.20
2019-05-16T17:15:47.361Z,19.30
2019-05-16T17:18:17.412Z,19.40
2019-05-16T17:20:47.687Z,19.30
2019-05-16T17:23:17.417Z,19.20
2019-05-16T17:25:47.156Z,19.10
2019-05-16T17:28:17.333Z,18.90
2019-05-16T17:30:47.177Z,18.80
2019-05-16T17:33:18.319Z,18.70
2019-05-16T17:35:48.859Z,18.60
2019-05-16T17:38:17.715Z,18.60
2019-05-16T17:40:46.689Z,18.40
2019-05-16T17:43:16.484Z,18.40
2019-05-16T17:45:46.976Z,18.50
2019-05-16T17:48:17.529Z,18.50
2019-05-16T17:50:47.408Z,18.50
2019-05-16T17:53:17.263Z,18.40
2019-05-16T17:55:47.281Z,18.40
2019-05-16T17:58:16.646Z,18.20
2019-05-16T18:00:47.118Z,18.00
2019-05-16T18:03:17.317Z,17.80
2019-05-16T18:05:47.522Z,17.70
2019-05-16T18:08:16.644Z,17.60
2019-05-16T18:10:47.209Z,17.50
2019-05-16T18:13:16.090Z,17.40
2019-05-16T18:15:47.142Z,17.40
2019-05-16T18:18:17.730Z,17.30
2019-05-16T18:20:55.743Z,17.10
2019-05-16T18:23:18.243Z,17.00
2019-05-16T18:25:47.106Z,17.00
2019-05-16T18:28:17.503Z,16.90
2019-05-16T18:30:47.229Z,16.80
2019-05-16T18:33:16.732Z,16.80
2019-05-16T18:35:46.606Z,16.60
2019-05-16T18:38:16.572Z,16.50
2019-05-16T18:40:47.362Z,16.50
2019-05-16T18:43:16.650Z,16.20
2019-05-16T18:45:47.220Z,15.90
2019-05-16T18:48:16.502Z,15.80
2019-05-16T18:50:47.583Z,15.70
2019-05-16T18:53:17.755Z,15.70
2019-05-16T18:55:46.987Z,15.60
2019-05-16T18:58:18.039Z,15.50
2019-05-16T19:00:46.796Z,15.50
2019-05-16T19:03:16.465Z,15.50
2019-05-16T19:05:46.293Z,15.40
2019-05-16T19:08:16.365Z,15.30
2019-05-16T19:10:47.360Z,15.20
2019-05-16T19:13:17.079Z,15.10
2019-05-16T19:15:49.290Z,15.10
2019-05-16T19:18:17.138Z,15.00
2019-05-16T19:20:48.681Z,14.90
2019-05-16T19:23:17.477Z,14.80
2019-05-16T19:25:47.417Z,14.70
2019-05-16T19:28:16.672Z,14.70
2019-05-16T19:30:46.567Z,14.60
2019-05-16T19:33:17.493Z,14.60
2019-05-16T19:35:46.924Z,14.50
2019-05-16T19:38:17.028Z,14.40
2019-05-16T19:40:46.919Z,14.30
2019-05-16T19:43:17.502Z,14.30
2019-05-16T19:45:46.640Z,14.20
2019-05-16T19:48:17.436Z,14.20
2019-05-16T19:50:46.404Z,14.20
2019-05-16T19:53:16.473Z,14.20
2019-05-16T19:55:47.036Z,14.20
2019-05-16T19:58:16.191Z,14.10
2019-05-16T20:00:46.474Z,14.10
2019-05-16T20:03:16.679Z,14.10
2019-05-16T20:05:47.586Z,14.10
2019-05-16T20:08:17.492Z,14.10
2019-05-16T20:10:47.728Z,14.00
2019-05-16T20:13:16.732Z,14.00
2019-05-16T20:15:47.101Z,14.00
2019-05-16T20:18:18.624Z,13.90
2019-05-16T20:20:47.387Z,13.90
2019-05-16T20:23:16.646Z,13.90
2019-05-16T20:25:47.025Z,13.90
2019-05-16T20:28:18.435Z,13.80
2019-05-16T20:30:47.603Z,13.80
2019-05-16T20:33:17.941Z,13.80
2019-05-16T20:35:47.047Z,13.80
2019-05-16T20:38:17.276Z,13.70
2019-05-16T20:40:46.668Z,13.70
2019-05-16T20:43:16.895Z,13.70
2019-05-16T20:45:47.722Z,13.60
2019-05-16T20:48:18.489Z,13.60
2019-05-16T20:50:49.177Z,13.60
2019-05-16T20:53:17.717Z,13.60
2019-05-16T20:55:49.554Z,13.60
2019-05-16T20:58:17.368Z,13.50
2019-05-16T21:00:49.570Z,13.50
2019-05-16T21:03:17.035Z,13.50
2019-05-16T21:05:47.934Z,13.50
2019-05-16T21:08:17.234Z,13.50
2019-05-16T21:10:46.536Z,13.50
2019-05-16T21:13:17.185Z,13.50
2019-05-16T21:15:47.700Z,13.50
2019-05-16T21:18:16.765Z,13.40
2019-05-16T21:20:47.030Z,13.40
2019-05-16T21:23:19.090Z,13.40
2019-05-16T21:25:46.900Z,13.40
2019-05-16T21:28:19.455Z,13.30
2019-05-16T21:30:47.355Z,13.30
2019-05-16T21:33:18.616Z,13.30
2019-05-16T21:35:47.150Z,13.30
2019-05-16T21:38:16.678Z,13.20
2019-05-16T21:40:46.051Z,13.20
2019-05-16T21:43:16.696Z,13.20
2019-05-16T21:45:47.291Z,13.20
2019-05-16T21:48:16.344Z,13.20
2019-05-16T21:50:47.132Z,13.20
2019-05-16T21:53:17.715Z,13.20
2019-05-16T21:55:47.231Z,13.20
2019-05-16T21:58:16.680Z,13.20
2019-05-16T22:00:48.820Z,13.20
2019-05-16T22:03:18.026Z,13.20
2019-05-16T22:05:46.874Z,13.20
2019-05-16T22:08:16.825Z,13.20
2019-05-16T22:10:46.820Z,13.20
2019-05-16T22:13:16.107Z,13.20
2019-05-16T22:15:46.415Z,13.20
2019-05-16T22:18:16.554Z,13.20
2019-05-16T22:20:49.055Z,13.20
2019-05-16T22:23:17.316Z,13.30
2019-05-16T22:25:48.973Z,13.20
2019-05-16T22:28:17.335Z,13.30
2019-05-16T22:30:46.332Z,13.30
2019-05-16T22:33:17.741Z,13.30
2019-05-16T22:35:46.434Z,13.30
2019-05-16T22:38:16.872Z,13.30
2019-05-16T22:40:45.760Z,13.30
2019-05-16T22:43:17.235Z,13.30
2019-05-16T22:45:46.813Z,13.30
2019-05-16T22:48:17.251Z,13.30
2019-05-16T22:50:46.739Z,13.30
2019-05-16T22:53:17.250Z,13.30
2019-05-16T22:55:47.755Z,13.30
2019-05-16T22:58:17.384Z,13.30
2019-05-16T23:00:46.723Z,13.30
2019-05-16T23:03:17.392Z,13.30
2019-05-16T23:05:47.386Z,13.30
2019-05-16T23:08:16.679Z,13.30
2019-05-16T23:10:45.447Z,13.30
2019-05-16T23:13:16.832Z,13.30
2019-05-16T23:15:45.127Z,13.30
2019-05-16T23:18:14.155Z,13.30
2019-05-16T23:20:43.499Z,13.30
2019-05-16T23:23:12.259Z,13.30
2019-05-16T23:25:41.003Z,13.30
2019-05-16T23:28:09.852Z,13.30
2019-05-16T23:30:38.585Z,13.40
2019-05-16T23:33:07.492Z,13.40
2019-05-16T23:35:37.592Z,13.40
2019-05-16T23:38:18.611Z,13.50
2019-05-16T23:40:37.911Z,13.40
2019-05-16T23:43:07.619Z,13.40
2019-05-16T23:45:37.600Z,13.40
2019-05-16T23:48:10.438Z,13.50
2019-05-16T23:50:37.579Z,13.60
2019-05-16T23:53:07.254Z,13.50
2019-05-16T23:55:37.332Z,13.50
2019-05-16T23:58:06.972Z,13.50
